createdAt,value
2022-07-29T00:00:25.029Z,2.08
2022-07-29T00:03:27.978Z,1.95
2022-07-29T00:06:36.317Z,2.08
2022-07-29T00:09:51.086Z,2.03
2022-07-29T00:12:59.677Z,1.83
2022-07-29T00:16:04.849Z,2.05
2022-07-29T00:19:12.756Z,1.90
2022-07-29T00:22:13.373Z,2.83
2022-07-29T00:25:25.992Z,1.92
2022-07-29T00:28:25.881Z,2.20
2022-07-29T00:31:37.775Z,1.90
2022-07-29T00:35:03.423Z,2.50
2022-07-29T00:38:10.051Z,2.22
2022-07-29T00:41:09.994Z,2.85
2022-07-29T00:44:17.208Z,2.10
2022-07-29T00:47:21.782Z,2.50
2022-07-29T00:50:29.849Z,2.85
2022-07-29T00:53:29.758Z,2.67
2022-07-29T00:56:43.701Z,2.20
2022-07-29T00:59:44.516Z,2.13
2022-07-29T01:02:52.693Z,2.05
2022-07-29T01:06:02.820Z,2.65
2022-07-29T01:09:10.650Z,2.47
2022-07-29T01:12:11.968Z,2.58
2022-07-29T01:18:40.658Z,3.08
2022-07-29T01:22:01.052Z,2.58
2022-07-29T01:25:21.257Z,2.45
2022-07-29T01:28:54.074Z,2.28
2022-07-29T01:32:27.658Z,2.67
2022-07-29T01:35:34.130Z,2.97
2022-07-29T01:38:43.748Z,2.50
2022-07-29T01:41:50.601Z,1.83
2022-07-29T01:45:08.673Z,2.72
2022-07-29T01:48:21.689Z,2.58
2022-07-29T01:51:28.333Z,2.40
2022-07-29T01:54:40.689Z,2.25
2022-07-29T01:57:45.506Z,2.58
2022-07-29T02:00:57.688Z,2.65
2022-07-29T02:04:05.694Z,3.08
2022-07-29T02:07:10.557Z,2.63
2022-07-29T02:10:19.669Z,2.55
2022-07-29T02:13:34.066Z,2.40
2022-07-29T02:16:38.092Z,2.80
2022-07-29T02:19:46.668Z,2.72
2022-07-29T02:22:47.769Z,2.88
2022-07-29T02:25:56.646Z,2.55
2022-07-29T02:29:05.873Z,2.60
2022-07-29T02:32:18.182Z,2.50
2022-07-29T02:35:20.770Z,2.95
2022-07-29T02:38:47.011Z,2.83
2022-07-29T02:41:50.766Z,2.67
2022-07-29T02:44:59.227Z,2.90
2022-07-29T02:48:12.890Z,2.72
2022-07-29T02:51:43.433Z,2.83
2022-07-29T02:57:57.829Z,3.17
2022-07-29T03:01:09.802Z,3.33
2022-07-29T03:04:32.923Z,2.95
2022-07-29T03:07:41.819Z,2.92
2022-07-29T03:10:46.215Z,2.60
2022-07-29T03:13:52.713Z,3.20
2022-07-29T03:17:00.737Z,2.63
2022-07-29T03:20:06.489Z,3.70
2022-07-29T03:23:16.151Z,3.03
2022-07-29T03:26:17.318Z,2.40
2022-07-29T03:29:33.981Z,2.72
2022-07-29T03:32:37.782Z,3.10
2022-07-29T03:41:45.734Z,3.30
2022-07-29T03:44:50.208Z,3.10
2022-07-29T03:48:03.066Z,3.50
2022-07-29T03:51:12.030Z,3.53
2022-07-29T03:54:13.584Z,2.92
2022-07-29T03:57:22.773Z,3.38
2022-07-29T04:00:24.162Z,3.72
2022-07-29T04:03:53.596Z,3.30
2022-07-29T04:06:56.831Z,2.90
2022-07-29T04:10:11.013Z,3.25
2022-07-29T04:13:14.643Z,2.92
2022-07-29T04:16:22.164Z,3.65
2022-07-29T04:19:32.206Z,3.47
2022-07-29T04:22:42.779Z,2.72
2022-07-29T04:28:57.663Z,3.22
2022-07-29T04:32:10.780Z,3.47
2022-07-29T04:35:10.999Z,3.15
2022-07-29T04:38:19.670Z,3.17
2022-07-29T04:41:35.044Z,3.00
2022-07-29T04:44:44.670Z,4.10
2022-07-29T04:47:50.498Z,3.00
2022-07-29T04:50:59.818Z,2.92
2022-07-29T04:54:02.013Z,3.25
2022-07-29T04:57:08.907Z,3.00
2022-07-29T05:00:15.115Z,2.80
2022-07-29T05:03:37.630Z,3.10
2022-07-29T05:06:43.211Z,2.97
2022-07-29T05:09:52.730Z,3.35
2022-07-29T05:12:56.899Z,2.72
2022-07-29T05:16:13.759Z,2.90
2022-07-29T05:19:14.690Z,2.92
2022-07-29T05:22:21.928Z,2.58
2022-07-29T05:25:45.751Z,3.28
2022-07-29T05:28:52.858Z,3.03
2022-07-29T05:32:05.788Z,3.13
2022-07-29T05:35:08.102Z,2.95
2022-07-29T05:38:14.880Z,2.90
2022-07-29T05:41:16.675Z,3.22
2022-07-29T05:44:25.333Z,3.42
2022-07-29T05:47:28.449Z,3.00
2022-07-29T05:50:36.085Z,2.85
2022-07-29T05:53:48.010Z,2.95
2022-07-29T05:56:56.747Z,3.40
2022-07-29T06:00:03.845Z,2.92
2022-07-29T06:03:12.781Z,3.83
2022-07-29T06:06:25.018Z,2.97
2022-07-29T06:09:27.189Z,2.97
2022-07-29T06:12:34.022Z,2.67
2022-07-29T06:15:35.235Z,3.10
2022-07-29T06:18:45.064Z,2.67
2022-07-29T06:22:00.933Z,2.90
2022-07-29T06:25:18.167Z,2.78
2022-07-29T06:28:21.203Z,3.00
2022-07-29T06:31:31.020Z,2.90
2022-07-29T06:34:52.203Z,2.60
2022-07-29T06:38:31.649Z,2.15
2022-07-29T06:41:39.591Z,2.58
2022-07-29T06:44:50.619Z,2.15
2022-07-29T06:47:53.044Z,2.50
2022-07-29T06:50:59.187Z,3.00
2022-07-29T06:54:15.743Z,2.45
2022-07-29T06:57:32.648Z,2.85
2022-07-29T07:00:41.857Z,2.40
2022-07-29T07:08:59.652Z,2.30
2022-07-29T07:25:26.700Z,2.13
2022-07-29T07:28:35.846Z,2.30
2022-07-29T07:32:00.476Z,2.63
2022-07-29T07:35:34.490Z,1.88
2022-07-29T08:48:36.502Z,2.10
2022-07-29T09:00:47.879Z,2.03
2022-07-29T09:03:54.138Z,1.98
2022-07-29T09:07:12.138Z,2.03
2022-07-29T09:10:29.057Z,2.13
2022-07-29T09:14:13.387Z,1.90
2022-07-29T09:17:29.163Z,2.00
2022-07-29T09:20:54.724Z,1.98
2022-07-29T09:27:41.716Z,2.13
2022-07-29T09:30:46.971Z,1.80
2022-07-29T09:34:09.196Z,1.83
2022-07-29T10:03:19.277Z,2.00
2022-07-29T10:33:52.535Z,1.90
2022-07-29T10:55:19.049Z,1.42
2022-07-29T11:44:05.928Z,2.00
2022-07-29T12:19:03.602Z,2.20
2022-07-29T12:44:33.680Z,1.63
2022-07-29T13:05:33.093Z,1.75
2022-07-29T13:13:09.538Z,2.22
2022-07-29T13:45:42.180Z,2.50
2022-07-29T14:11:41.222Z,2.30
2022-07-29T14:28:09.043Z,2.33
2022-07-29T14:32:16.170Z,2.10
2022-07-29T14:36:32.443Z,2.17
2022-07-29T15:06:31.696Z,2.30
2022-07-29T15:36:21.219Z,2.70
2022-07-29T15:40:34.478Z,2.28
2022-07-29T16:26:35.911Z,2.90
2022-07-29T16:34:37.610Z,2.88
2022-07-29T16:42:45.973Z,2.17
2022-07-29T16:46:18.521Z,3.30
2022-07-29T16:49:47.709Z,2.83
2022-07-29T16:59:59.943Z,2.65
2022-07-29T17:03:08.610Z,2.47
2022-07-29T17:06:21.945Z,2.58
2022-07-29T17:09:40.207Z,2.25
2022-07-29T17:13:03.458Z,2.55
2022-07-29T17:16:20.122Z,2.47
2022-07-29T17:19:48.733Z,2.20
2022-07-29T17:22:54.411Z,2.13
2022-07-29T17:26:04.782Z,1.98
2022-07-29T17:29:09.284Z,2.15
2022-07-29T17:32:34.329Z,2.50
2022-07-29T17:35:58.006Z,2.50
2022-07-29T17:39:04.062Z,2.50
2022-07-29T17:42:12.803Z,2.45
2022-07-29T17:45:16.177Z,2.20
2022-07-29T17:48:24.851Z,2.33
2022-07-29T17:51:41.309Z,2.20
2022-07-29T17:54:57.751Z,2.55
2022-07-29T17:58:09.933Z,2.17
2022-07-29T18:07:57.987Z,2.42
2022-07-29T18:11:16.767Z,2.30
2022-07-29T18:14:20.560Z,2.20
2022-07-29T18:17:52.778Z,2.58
2022-07-29T18:21:10.991Z,2.15
2022-07-29T18:24:16.243Z,2.13
2022-07-29T18:27:31.907Z,2.30
2022-07-29T18:30:34.083Z,3.05
2022-07-29T18:33:47.272Z,3.17
2022-07-29T18:37:13.635Z,2.42
2022-07-29T18:40:24.269Z,2.20
2022-07-29T18:43:31.853Z,2.30
2022-07-29T18:46:32.121Z,1.90
2022-07-29T18:49:42.867Z,2.65
2022-07-29T18:52:46.767Z,2.37
2022-07-29T18:56:00.075Z,3.08
2022-07-29T18:59:17.152Z,2.03
2022-07-29T19:02:23.948Z,2.13
2022-07-29T19:05:31.893Z,2.70
2022-07-29T19:08:36.245Z,2.25
2022-07-29T19:11:46.803Z,2.17
2022-07-29T19:14:54.338Z,2.95
2022-07-29T19:18:12.706Z,2.13
2022-07-29T19:21:13.819Z,2.42
2022-07-29T19:24:22.952Z,2.20
2022-07-29T19:27:32.961Z,3.10
2022-07-29T19:33:51.933Z,2.05
2022-07-29T19:37:20.657Z,2.40
2022-07-29T19:40:27.125Z,2.72
2022-07-29T19:43:51.528Z,2.72
2022-07-29T19:46:57.565Z,2.03
2022-07-29T19:50:09.067Z,2.90
2022-07-29T19:53:09.532Z,2.83
2022-07-29T19:56:42.359Z,2.78
2022-07-29T19:59:44.289Z,2.60
2022-07-29T20:02:57.605Z,2.72
2022-07-29T20:06:08.373Z,2.50
2022-07-29T20:09:17.072Z,3.00
2022-07-29T20:12:24.246Z,2.78
2022-07-29T20:19:13.934Z,2.53
2022-07-29T20:23:10.475Z,2.92
2022-07-29T20:26:29.128Z,2.95
2022-07-29T20:33:13.480Z,2.90
2022-07-29T20:40:27.435Z,3.10
2022-07-29T20:43:47.502Z,3.45
2022-07-29T20:46:53.548Z,3.05
2022-07-29T20:50:07.762Z,3.03
2022-07-29T20:53:25.869Z,2.55
2022-07-29T20:56:32.084Z,2.78
2022-07-29T20:59:55.176Z,3.20
2022-07-29T21:03:00.797Z,2.95
2022-07-29T21:06:15.272Z,2.83
2022-07-29T21:13:21.230Z,2.80
2022-07-29T21:16:32.130Z,2.38
2022-07-29T21:19:39.346Z,2.92
2022-07-29T21:22:51.742Z,2.83
2022-07-29T21:25:54.557Z,3.50
2022-07-29T21:29:05.954Z,3.10
2022-07-29T21:32:14.839Z,2.83
2022-07-29T21:36:06.658Z,2.85
2022-07-29T21:39:13.998Z,3.33
2022-07-29T21:42:41.565Z,3.45
2022-07-29T21:50:23.112Z,2.97
2022-07-29T21:53:26.967Z,2.85
2022-07-29T21:56:51.319Z,3.15
2022-07-29T22:00:15.926Z,3.45
2022-07-29T22:06:55.161Z,3.30
2022-07-29T22:10:06.244Z,3.20
2022-07-29T22:16:52.755Z,3.45
2022-07-29T22:20:09.790Z,3.58
2022-07-29T22:23:37.365Z,3.50
2022-07-29T22:26:37.297Z,3.13
2022-07-29T22:30:10.124Z,3.50
2022-07-29T22:33:17.624Z,4.00
2022-07-29T22:36:45.086Z,3.30
2022-07-29T22:40:05.988Z,3.70
2022-07-29T22:43:14.814Z,3.75
2022-07-29T22:46:36.688Z,3.45
2022-07-29T22:49:45.539Z,4.60
2022-07-29T22:56:35.776Z,3.97
2022-07-29T22:59:41.857Z,3.80
2022-07-29T23:02:58.849Z,4.05
2022-07-29T23:06:24.467Z,3.72
2022-07-29T23:09:35.974Z,3.70
2022-07-29T23:12:49.334Z,4.43
2022-07-29T23:16:08.209Z,3.72
2022-07-29T23:19:25.198Z,4.28
2022-07-29T23:22:41.600Z,3.97
2022-07-29T23:26:10.799Z,4.07
2022-07-29T23:29:18.563Z,3.80
2022-07-29T23:32:31.137Z,3.83
2022-07-29T23:35:36.201Z,3.97
2022-07-29T23:42:21.760Z,3.30
2022-07-29T23:45:42.874Z,3.80
2022-07-29T23:49:19.741Z,4.43
2022-07-29T23:52:36.990Z,3.90
2022-07-29T23:55:46.860Z,3.80
2022-07-29T23:58:52.627Z,3.93
